sensor_id;sensor_type;location;lat;lon;timestamp;P1;durP1;ratioP1;P2;durP2;ratioP2
32198;SDS011;19221;42.656;21.156;2022-08-19T00:01:55;9.18;;;7.90;;
32198;SDS011;19221;42.656;21.156;2022-08-19T00:04:23;12.77;;;8.27;;
32198;SDS011;19221;42.656;21.156;2022-08-19T00:06:49;13.57;;;8.27;;
32198;SDS011;19221;42.656;21.156;2022-08-19T00:09:16;14.30;;;8.25;;
32198;SDS011;19221;42.656;21.156;2022-08-19T00:11:43;13.32;;;8.95;;
32198;SDS011;19221;42.656;21.156;2022-08-19T00:14:09;12.50;;;9.02;;
32198;SDS011;19221;42.656;21.156;2022-08-19T00:16:36;9.65;;;7.15;;
32198;SDS011;19221;42.656;21.156;2022-08-19T00:19:03;10.65;;;7.07;;
32198;SDS011;19221;42.656;21.156;2022-08-19T00:21:28;14.45;;;7.25;;
32198;SDS011;19221;42.656;21.156;2022-08-19T00:23:54;10.80;;;7.25;;
32198;SDS011;19221;42.656;21.156;2022-08-19T00:26:24;13.20;;;8.02;;
32198;SDS011;19221;42.656;21.156;2022-08-19T00:28:49;14.73;;;9.02;;
32198;SDS011;19221;42.656;21.156;2022-08-19T00:31:15;18.77;;;9.70;;
32198;SDS011;19221;42.656;21.156;2022-08-19T00:33:41;13.68;;;9.52;;
32198;SDS011;19221;42.656;21.156;2022-08-19T00:36:08;12.02;;;7.88;;
32198;SDS011;19221;42.656;21.156;2022-08-19T00:38:35;10.55;;;7.70;;
32198;SDS011;19221;42.656;21.156;2022-08-19T00:41:01;9.07;;;8.05;;
32198;SDS011;19221;42.656;21.156;2022-08-19T00:43:27;9.70;;;7.03;;
32198;SDS011;19221;42.656;21.156;2022-08-19T00:45:53;8.63;;;7.28;;
32198;SDS011;19221;42.656;21.156;2022-08-19T00:48:19;10.57;;;7.55;;
32198;SDS011;19221;42.656;21.156;2022-08-19T00:50:46;12.07;;;7.68;;
32198;SDS011;19221;42.656;21.156;2022-08-19T00:53:12;11.30;;;7.60;;
32198;SDS011;19221;42.656;21.156;2022-08-19T00:55:40;9.75;;;7.50;;
32198;SDS011;19221;42.656;21.156;2022-08-19T00:58:08;12.23;;;9.18;;
32198;SDS011;19221;42.656;21.156;2022-08-19T01:00:35;17.85;;;8.10;;
32198;SDS011;19221;42.656;21.156;2022-08-19T01:03:06;13.65;;;9.68;;
32198;SDS011;19221;42.656;21.156;2022-08-19T01:05:32;13.90;;;10.77;;
32198;SDS011;19221;42.656;21.156;2022-08-19T01:07:59;12.43;;;8.93;;
32198;SDS011;19221;42.656;21.156;2022-08-19T01:10:26;9.57;;;7.53;;
32198;SDS011;19221;42.656;21.156;2022-08-19T01:12:53;9.77;;;8.15;;
32198;SDS011;19221;42.656;21.156;2022-08-19T01:15:21;9.68;;;7.90;;
32198;SDS011;19221;42.656;21.156;2022-08-19T01:17:48;10.73;;;8.57;;
32198;SDS011;19221;42.656;21.156;2022-08-19T01:20:15;9.95;;;7.80;;
32198;SDS011;19221;42.656;21.156;2022-08-19T01:25:07;9.90;;;8.30;;
32198;SDS011;19221;42.656;21.156;2022-08-19T01:27:37;9.70;;;7.88;;
32198;SDS011;19221;42.656;21.156;2022-08-19T01:30:03;11.43;;;8.70;;
32198;SDS011;19221;42.656;21.156;2022-08-19T01:32:28;14.20;;;10.02;;
32198;SDS011;19221;42.656;21.156;2022-08-19T01:34:55;12.13;;;8.80;;
32198;SDS011;19221;42.656;21.156;2022-08-19T01:37:21;11.30;;;8.48;;
32198;SDS011;19221;42.656;21.156;2022-08-19T01:39:46;12.57;;;7.47;;
32198;SDS011;19221;42.656;21.156;2022-08-19T01:42:12;12.18;;;7.70;;
32198;SDS011;19221;42.656;21.156;2022-08-19T01:44:39;15.32;;;7.60;;
32198;SDS011;19221;42.656;21.156;2022-08-19T01:47:06;10.60;;;8.00;;
32198;SDS011;19221;42.656;21.156;2022-08-19T01:49:32;11.52;;;8.60;;
32198;SDS011;19221;42.656;21.156;2022-08-19T01:51:58;13.23;;;8.80;;
32198;SDS011;19221;42.656;21.156;2022-08-19T01:54:25;11.73;;;9.82;;
32198;SDS011;19221;42.656;21.156;2022-08-19T01:56:51;11.85;;;9.80;;
32198;SDS011;19221;42.656;21.156;2022-08-19T01:59:19;12.95;;;7.82;;
32198;SDS011;19221;42.656;21.156;2022-08-19T02:01:45;9.38;;;7.25;;
32198;SDS011;19221;42.656;21.156;2022-08-19T02:04:11;10.35;;;7.85;;
32198;SDS011;19221;42.656;21.156;2022-08-19T02:06:37;10.50;;;7.15;;
32198;SDS011;19221;42.656;21.156;2022-08-19T02:09:03;8.98;;;7.13;;
32198;SDS011;19221;42.656;21.156;2022-08-19T02:11:30;10.50;;;7.03;;
32198;SDS011;19221;42.656;21.156;2022-08-19T02:13:57;10.60;;;7.63;;
32198;SDS011;19221;42.656;21.156;2022-08-19T02:16:26;11.98;;;7.43;;
32198;SDS011;19221;42.656;21.156;2022-08-19T02:18:51;11.88;;;8.40;;
32198;SDS011;19221;42.656;21.156;2022-08-19T02:21:18;10.93;;;8.75;;
32198;SDS011;19221;42.656;21.156;2022-08-19T02:23:44;9.68;;;8.68;;
32198;SDS011;19221;42.656;21.156;2022-08-19T02:26:10;12.98;;;9.55;;
32198;SDS011;19221;42.656;21.156;2022-08-19T02:28:36;12.07;;;8.10;;
32198;SDS011;19221;42.656;21.156;2022-08-19T02:31:02;10.63;;;8.10;;
32198;SDS011;19221;42.656;21.156;2022-08-19T02:33:28;8.60;;;7.47;;
32198;SDS011;19221;42.656;21.156;2022-08-19T02:35:54;9.65;;;7.90;;
32198;SDS011;19221;42.656;21.156;2022-08-19T02:38:20;11.00;;;7.60;;
32198;SDS011;19221;42.656;21.156;2022-08-19T02:40:56;15.48;;;7.65;;
32198;SDS011;19221;42.656;21.156;2022-08-19T02:43:22;8.88;;;7.18;;
32198;SDS011;19221;42.656;21.156;2022-08-19T02:45:48;9.00;;;6.70;;
32198;SDS011;19221;42.656;21.156;2022-08-19T02:48:18;10.13;;;6.88;;
32198;SDS011;19221;42.656;21.156;2022-08-19T02:50:44;9.82;;;6.45;;
32198;SDS011;19221;42.656;21.156;2022-08-19T02:53:10;13.43;;;7.40;;
32198;SDS011;19221;42.656;21.156;2022-08-19T02:55:36;13.10;;;7.07;;
32198;SDS011;19221;42.656;21.156;2022-08-19T02:58:07;11.63;;;8.35;;
32198;SDS011;19221;42.656;21.156;2022-08-19T03:00:32;12.82;;;7.88;;
32198;SDS011;19221;42.656;21.156;2022-08-19T03:02:58;11.38;;;7.82;;
32198;SDS011;19221;42.656;21.156;2022-08-19T03:05:25;13.30;;;7.88;;
32198;SDS011;19221;42.656;21.156;2022-08-19T03:07:52;10.73;;;8.00;;
32198;SDS011;19221;42.656;21.156;2022-08-19T03:10:20;11.30;;;8.75;;
32198;SDS011;19221;42.656;21.156;2022-08-19T03:12:45;12.15;;;9.35;;
32198;SDS011;19221;42.656;21.156;2022-08-19T03:15:11;10.13;;;8.00;;
32198;SDS011;19221;42.656;21.156;2022-08-19T03:17:37;11.00;;;8.50;;
32198;SDS011;19221;42.656;21.156;2022-08-19T03:20:03;8.35;;;7.10;;
32198;SDS011;19221;42.656;21.156;2022-08-19T03:22:30;9.80;;;7.70;;
32198;SDS011;19221;42.656;21.156;2022-08-19T03:24:56;13.35;;;7.55;;
32198;SDS011;19221;42.656;21.156;2022-08-19T03:27:21;10.55;;;7.68;;
32198;SDS011;19221;42.656;21.156;2022-08-19T03:29:47;8.20;;;7.00;;
32198;SDS011;19221;42.656;21.156;2022-08-19T03:32:13;10.63;;;7.47;;
32198;SDS011;19221;42.656;21.156;2022-08-19T03:34:39;8.52;;;6.88;;
32198;SDS011;19221;42.656;21.156;2022-08-19T03:37:06;9.57;;;7.20;;
32198;SDS011;19221;42.656;21.156;2022-08-19T03:39:33;10.93;;;7.93;;
32198;SDS011;19221;42.656;21.156;2022-08-19T03:41:59;11.18;;;8.57;;
32198;SDS011;19221;42.656;21.156;2022-08-19T03:44:28;19.15;;;12.70;;
32198;SDS011;19221;42.656;21.156;2022-08-19T03:46:55;15.23;;;10.93;;
32198;SDS011;19221;42.656;21.156;2022-08-19T03:49:21;16.80;;;10.93;;
32198;SDS011;19221;42.656;21.156;2022-08-19T03:51:48;17.92;;;10.55;;
32198;SDS011;19221;42.656;21.156;2022-08-19T03:54:14;12.30;;;9.30;;
32198;SDS011;19221;42.656;21.156;2022-08-19T03:56:41;15.18;;;11.35;;
32198;SDS011;19221;42.656;21.156;2022-08-19T03:59:10;20.88;;;13.35;;
32198;SDS011;19221;42.656;21.156;2022-08-19T04:01:36;21.75;;;14.93;;
32198;SDS011;19221;42.656;21.156;2022-08-19T04:04:02;21.83;;;13.07;;
32198;SDS011;19221;42.656;21.156;2022-08-19T04:06:30;17.65;;;13.45;;
32198;SDS011;19221;42.656;21.156;2022-08-19T04:08:56;12.70;;;11.10;;
32198;SDS011;19221;42.656;21.156;2022-08-19T04:11:45;15.93;;;10.95;;
32198;SDS011;19221;42.656;21.156;2022-08-19T04:14:10;13.38;;;9.88;;
32198;SDS011;19221;42.656;21.156;2022-08-19T04:16:46;13.95;;;9.43;;
32198;SDS011;19221;42.656;21.156;2022-08-19T04:19:13;13.07;;;9.70;;
32198;SDS011;19221;42.656;21.156;2022-08-19T04:21:39;11.75;;;9.23;;
32198;SDS011;19221;42.656;21.156;2022-08-19T04:24:05;11.75;;;9.30;;
32198;SDS011;19221;42.656;21.156;2022-08-19T04:26:32;10.73;;;9.18;;
32198;SDS011;19221;42.656;21.156;2022-08-19T04:28:59;20.15;;;11.93;;
32198;SDS011;19221;42.656;21.156;2022-08-19T04:31:26;22.52;;;17.70;;
32198;SDS011;19221;42.656;21.156;2022-08-19T04:33:53;25.23;;;20.23;;
32198;SDS011;19221;42.656;21.156;2022-08-19T04:36:23;32.95;;;23.08;;
32198;SDS011;19221;42.656;21.156;2022-08-19T04:38:49;21.77;;;17.88;;
32198;SDS011;19221;42.656;21.156;2022-08-19T04:41:15;18.40;;;13.23;;
32198;SDS011;19221;42.656;21.156;2022-08-19T04:43:59;18.65;;;11.68;;
32198;SDS011;19221;42.656;21.156;2022-08-19T04:46:25;14.63;;;9.80;;
32198;SDS011;19221;42.656;21.156;2022-08-19T04:48:51;14.45;;;10.40;;
32198;SDS011;19221;42.656;21.156;2022-08-19T04:51:18;15.38;;;10.77;;
32198;SDS011;19221;42.656;21.156;2022-08-19T04:53:45;16.00;;;9.68;;
32198;SDS011;19221;42.656;21.156;2022-08-19T04:56:12;15.50;;;9.55;;
32198;SDS011;19221;42.656;21.156;2022-08-19T04:58:39;8.90;;;7.43;;
32198;SDS011;19221;42.656;21.156;2022-08-19T05:01:06;12.20;;;7.68;;
32198;SDS011;19221;42.656;21.156;2022-08-19T05:03:32;9.90;;;7.80;;
32198;SDS011;19221;42.656;21.156;2022-08-19T05:06:08;14.70;;;8.20;;
32198;SDS011;19221;42.656;21.156;2022-08-19T05:08:36;13.93;;;8.23;;
32198;SDS011;19221;42.656;21.156;2022-08-19T05:11:07;10.55;;;7.78;;
32198;SDS011;19221;42.656;21.156;2022-08-19T05:13:34;17.00;;;8.70;;
32198;SDS011;19221;42.656;21.156;2022-08-19T05:15:59;11.13;;;8.35;;
32198;SDS011;19221;42.656;21.156;2022-08-19T05:18:25;13.82;;;8.32;;
32198;SDS011;19221;42.656;21.156;2022-08-19T05:21:10;13.25;;;8.15;;
32198;SDS011;19221;42.656;21.156;2022-08-19T05:23:55;11.48;;;8.68;;
32198;SDS011;19221;42.656;21.156;2022-08-19T05:26:21;15.40;;;9.68;;
32198;SDS011;19221;42.656;21.156;2022-08-19T05:28:47;14.35;;;9.88;;
32198;SDS011;19221;42.656;21.156;2022-08-19T05:31:12;16.40;;;9.65;;
32198;SDS011;19221;42.656;21.156;2022-08-19T05:33:38;12.85;;;8.90;;
32198;SDS011;19221;42.656;21.156;2022-08-19T05:36:05;11.57;;;8.88;;
32198;SDS011;19221;42.656;21.156;2022-08-19T05:38:33;17.08;;;9.52;;
32198;SDS011;19221;42.656;21.156;2022-08-19T05:40:58;13.13;;;9.10;;
32198;SDS011;19221;42.656;21.156;2022-08-19T05:43:24;13.07;;;8.93;;
32198;SDS011;19221;42.656;21.156;2022-08-19T05:45:50;18.15;;;9.57;;
32198;SDS011;19221;42.656;21.156;2022-08-19T05:48:16;17.00;;;10.02;;
32198;SDS011;19221;42.656;21.156;2022-08-19T05:50:45;16.63;;;9.18;;
32198;SDS011;19221;42.656;21.156;2022-08-19T05:53:12;14.90;;;8.98;;
32198;SDS011;19221;42.656;21.156;2022-08-19T05:55:41;14.57;;;8.93;;
32198;SDS011;19221;42.656;21.156;2022-08-19T05:58:07;15.00;;;9.32;;
32198;SDS011;19221;42.656;21.156;2022-08-19T06:00:33;14.05;;;9.20;;
32198;SDS011;19221;42.656;21.156;2022-08-19T06:02:59;13.55;;;9.05;;
32198;SDS011;19221;42.656;21.156;2022-08-19T06:05:29;17.17;;;8.98;;
32198;SDS011;19221;42.656;21.156;2022-08-19T06:07:55;21.92;;;11.20;;
32198;SDS011;19221;42.656;21.156;2022-08-19T06:10:21;18.13;;;9.95;;
32198;SDS011;19221;42.656;21.156;2022-08-19T06:12:47;16.92;;;9.77;;
32198;SDS011;19221;42.656;21.156;2022-08-19T06:15:13;16.92;;;10.40;;
32198;SDS011;19221;42.656;21.156;2022-08-19T06:17:39;28.10;;;16.40;;
32198;SDS011;19221;42.656;21.156;2022-08-19T06:20:06;22.85;;;11.15;;
32198;SDS011;19221;42.656;21.156;2022-08-19T06:22:37;15.68;;;11.13;;
32198;SDS011;19221;42.656;21.156;2022-08-19T06:25:03;20.35;;;11.25;;
32198;SDS011;19221;42.656;21.156;2022-08-19T06:27:29;25.15;;;11.23;;
32198;SDS011;19221;42.656;21.156;2022-08-19T06:29:57;22.70;;;12.60;;
32198;SDS011;19221;42.656;21.156;2022-08-19T06:32:22;25.17;;;12.00;;
32198;SDS011;19221;42.656;21.156;2022-08-19T06:34:48;18.10;;;10.63;;
32198;SDS011;19221;42.656;21.156;2022-08-19T06:37:14;18.95;;;11.98;;
32198;SDS011;19221;42.656;21.156;2022-08-19T06:39:42;25.13;;;11.20;;
32198;SDS011;19221;42.656;21.156;2022-08-19T06:42:09;24.58;;;11.82;;
32198;SDS011;19221;42.656;21.156;2022-08-19T06:44:39;22.20;;;10.93;;
32198;SDS011;19221;42.656;21.156;2022-08-19T06:47:19;19.10;;;11.98;;
32198;SDS011;19221;42.656;21.156;2022-08-19T06:49:45;25.77;;;11.15;;
32198;SDS011;19221;42.656;21.156;2022-08-19T06:52:11;22.42;;;11.07;;
32198;SDS011;19221;42.656;21.156;2022-08-19T06:54:37;16.48;;;10.43;;
32198;SDS011;19221;42.656;21.156;2022-08-19T06:57:03;22.13;;;11.02;;
32198;SDS011;19221;42.656;21.156;2022-08-19T06:59:29;19.50;;;9.98;;
32198;SDS011;19221;42.656;21.156;2022-08-19T07:01:58;29.13;;;11.48;;
32198;SDS011;19221;42.656;21.156;2022-08-19T07:04:25;22.77;;;11.07;;
32198;SDS011;19221;42.656;21.156;2022-08-19T07:06:56;17.48;;;11.27;;
32198;SDS011;19221;42.656;21.156;2022-08-19T07:09:22;23.02;;;11.20;;
32198;SDS011;19221;42.656;21.156;2022-08-19T07:11:49;31.38;;;11.43;;
32198;SDS011;19221;42.656;21.156;2022-08-19T07:14:16;24.80;;;12.30;;
32198;SDS011;19221;42.656;21.156;2022-08-19T07:16:43;25.63;;;13.85;;
32198;SDS011;19221;42.656;21.156;2022-08-19T07:19:11;20.10;;;9.88;;
32198;SDS011;19221;42.656;21.156;2022-08-19T07:21:36;27.13;;;13.73;;
32198;SDS011;19221;42.656;21.156;2022-08-19T07:24:02;33.22;;;12.40;;
32198;SDS011;19221;42.656;21.156;2022-08-19T07:26:32;22.52;;;11.05;;
32198;SDS011;19221;42.656;21.156;2022-08-19T07:28:58;22.55;;;11.05;;
32198;SDS011;19221;42.656;21.156;2022-08-19T07:31:26;21.08;;;10.90;;
32198;SDS011;19221;42.656;21.156;2022-08-19T07:33:52;26.13;;;11.07;;
32198;SDS011;19221;42.656;21.156;2022-08-19T07:36:22;25.80;;;11.60;;
32198;SDS011;19221;42.656;21.156;2022-08-19T07:38:49;20.70;;;11.02;;
32198;SDS011;19221;42.656;21.156;2022-08-19T07:41:19;19.13;;;12.00;;
32198;SDS011;19221;42.656;21.156;2022-08-19T07:43:45;22.48;;;10.35;;
32198;SDS011;19221;42.656;21.156;2022-08-19T07:46:12;20.70;;;9.13;;
32198;SDS011;19221;42.656;21.156;2022-08-19T07:48:39;23.27;;;10.27;;
32198;SDS011;19221;42.656;21.156;2022-08-19T07:51:05;19.13;;;10.98;;
32198;SDS011;19221;42.656;21.156;2022-08-19T07:53:33;19.80;;;9.70;;
32198;SDS011;19221;42.656;21.156;2022-08-19T07:55:59;21.15;;;9.68;;
32198;SDS011;19221;42.656;21.156;2022-08-19T07:58:33;20.83;;;9.60;;
32198;SDS011;19221;42.656;21.156;2022-08-19T08:01:00;18.50;;;9.98;;
32198;SDS011;19221;42.656;21.156;2022-08-19T08:03:26;16.38;;;10.07;;
32198;SDS011;19221;42.656;21.156;2022-08-19T08:06:12;20.23;;;9.68;;
32198;SDS011;19221;42.656;21.156;2022-08-19T08:08:57;18.50;;;9.63;;
32198;SDS011;19221;42.656;21.156;2022-08-19T08:11:42;21.65;;;10.57;;
32198;SDS011;19221;42.656;21.156;2022-08-19T08:14:08;29.42;;;15.32;;
32198;SDS011;19221;42.656;21.156;2022-08-19T08:16:37;22.83;;;10.68;;
32198;SDS011;19221;42.656;21.156;2022-08-19T08:19:04;22.48;;;11.32;;
32198;SDS011;19221;42.656;21.156;2022-08-19T08:21:31;19.73;;;11.18;;
32198;SDS011;19221;42.656;21.156;2022-08-19T08:23:57;22.80;;;10.75;;
32198;SDS011;19221;42.656;21.156;2022-08-19T08:26:23;22.52;;;11.38;;
32198;SDS011;19221;42.656;21.156;2022-08-19T08:28:50;24.83;;;11.00;;
32198;SDS011;19221;42.656;21.156;2022-08-19T08:31:16;27.15;;;10.77;;
32198;SDS011;19221;42.656;21.156;2022-08-19T08:33:44;26.45;;;10.70;;
32198;SDS011;19221;42.656;21.156;2022-08-19T08:36:10;29.55;;;10.52;;
32198;SDS011;19221;42.656;21.156;2022-08-19T08:38:36;20.55;;;9.68;;
32198;SDS011;19221;42.656;21.156;2022-08-19T08:41:27;21.08;;;9.98;;
32198;SDS011;19221;42.656;21.156;2022-08-19T08:43:49;19.15;;;10.00;;
32198;SDS011;19221;42.656;21.156;2022-08-19T08:49:02;25.38;;;11.25;;
32198;SDS011;19221;42.656;21.156;2022-08-19T08:51:37;19.95;;;10.55;;
32198;SDS011;19221;42.656;21.156;2022-08-19T08:54:05;22.77;;;9.85;;
32198;SDS011;19221;42.656;21.156;2022-08-19T08:56:32;13.88;;;8.20;;
32198;SDS011;19221;42.656;21.156;2022-08-19T08:59:16;16.25;;;9.00;;
32198;SDS011;19221;42.656;21.156;2022-08-19T09:01:44;17.95;;;9.25;;
32198;SDS011;19221;42.656;21.156;2022-08-19T09:04:10;16.60;;;8.52;;
32198;SDS011;19221;42.656;21.156;2022-08-19T09:06:52;18.10;;;9.05;;
32198;SDS011;19221;42.656;21.156;2022-08-19T09:09:25;24.30;;;9.95;;
32198;SDS011;19221;42.656;21.156;2022-08-19T09:11:58;15.98;;;7.97;;
32198;SDS011;19221;42.656;21.156;2022-08-19T09:14:37;19.42;;;9.20;;
32198;SDS011;19221;42.656;21.156;2022-08-19T09:17:07;16.10;;;8.15;;
32198;SDS011;19221;42.656;21.156;2022-08-19T09:19:35;22.30;;;10.60;;
32198;SDS011;19221;42.656;21.156;2022-08-19T09:22:01;24.77;;;11.55;;
32198;SDS011;19221;42.656;21.156;2022-08-19T09:24:26;19.05;;;8.35;;
32198;SDS011;19221;42.656;21.156;2022-08-19T09:26:52;19.08;;;9.85;;
32198;SDS011;19221;42.656;21.156;2022-08-19T09:29:18;14.77;;;8.18;;
32198;SDS011;19221;42.656;21.156;2022-08-19T09:31:46;21.40;;;9.18;;
32198;SDS011;19221;42.656;21.156;2022-08-19T09:34:11;15.57;;;8.70;;
32198;SDS011;19221;42.656;21.156;2022-08-19T09:36:37;16.50;;;8.05;;
32198;SDS011;19221;42.656;21.156;2022-08-19T09:39:05;21.13;;;10.23;;
32198;SDS011;19221;42.656;21.156;2022-08-19T09:41:31;24.80;;;13.85;;
32198;SDS011;19221;42.656;21.156;2022-08-19T09:43:57;18.10;;;8.98;;
32198;SDS011;19221;42.656;21.156;2022-08-19T09:46:24;14.80;;;8.80;;
32198;SDS011;19221;42.656;21.156;2022-08-19T09:48:51;13.50;;;7.85;;
32198;SDS011;19221;42.656;21.156;2022-08-19T09:51:18;18.40;;;8.30;;
32198;SDS011;19221;42.656;21.156;2022-08-19T09:53:45;15.77;;;8.55;;
32198;SDS011;19221;42.656;21.156;2022-08-19T09:56:12;20.73;;;8.48;;
32198;SDS011;19221;42.656;21.156;2022-08-19T09:58:38;12.45;;;8.50;;
32198;SDS011;19221;42.656;21.156;2022-08-19T10:01:05;28.13;;;15.30;;
32198;SDS011;19221;42.656;21.156;2022-08-19T10:03:31;14.20;;;7.60;;
32198;SDS011;19221;42.656;21.156;2022-08-19T10:05:58;22.25;;;11.90;;
32198;SDS011;19221;42.656;21.156;2022-08-19T10:08:25;15.57;;;9.15;;
32198;SDS011;19221;42.656;21.156;2022-08-19T10:10:52;15.43;;;7.88;;
32198;SDS011;19221;42.656;21.156;2022-08-19T10:13:20;18.40;;;7.43;;
32198;SDS011;19221;42.656;21.156;2022-08-19T10:15:51;14.15;;;7.65;;
32198;SDS011;19221;42.656;21.156;2022-08-19T10:18:17;9.77;;;6.25;;
32198;SDS011;19221;42.656;21.156;2022-08-19T10:20:44;10.50;;;6.90;;
32198;SDS011;19221;42.656;21.156;2022-08-19T10:23:11;13.60;;;7.32;;
32198;SDS011;19221;42.656;21.156;2022-08-19T10:25:37;17.08;;;7.88;;
32198;SDS011;19221;42.656;21.156;2022-08-19T10:28:03;13.82;;;6.95;;
32198;SDS011;19221;42.656;21.156;2022-08-19T10:30:28;11.85;;;7.07;;
32198;SDS011;19221;42.656;21.156;2022-08-19T10:32:54;9.52;;;6.55;;
32198;SDS011;19221;42.656;21.156;2022-08-19T10:35:20;11.55;;;6.38;;
32198;SDS011;19221;42.656;21.156;2022-08-19T10:37:45;7.70;;;6.03;;
32198;SDS011;19221;42.656;21.156;2022-08-19T10:40:11;11.25;;;6.68;;
32198;SDS011;19221;42.656;21.156;2022-08-19T10:42:37;15.93;;;6.95;;
32198;SDS011;19221;42.656;21.156;2022-08-19T10:45:04;12.32;;;6.45;;
32198;SDS011;19221;42.656;21.156;2022-08-19T10:47:31;13.50;;;6.60;;
32198;SDS011;19221;42.656;21.156;2022-08-19T10:49:57;11.70;;;6.93;;
32198;SDS011;19221;42.656;21.156;2022-08-19T10:52:42;19.30;;;7.97;;
32198;SDS011;19221;42.656;21.156;2022-08-19T10:55:08;10.93;;;6.38;;
32198;SDS011;19221;42.656;21.156;2022-08-19T10:57:53;15.43;;;7.45;;
32198;SDS011;19221;42.656;21.156;2022-08-19T11:00:19;13.20;;;6.70;;
32198;SDS011;19221;42.656;21.156;2022-08-19T11:02:45;19.83;;;7.18;;
32198;SDS011;19221;42.656;21.156;2022-08-19T11:05:12;11.15;;;7.13;;
32198;SDS011;19221;42.656;21.156;2022-08-19T11:07:39;16.38;;;6.65;;
32198;SDS011;19221;42.656;21.156;2022-08-19T11:10:05;11.82;;;6.57;;
32198;SDS011;19221;42.656;21.156;2022-08-19T11:12:31;11.77;;;7.07;;
32198;SDS011;19221;42.656;21.156;2022-08-19T11:14:58;11.88;;;6.13;;
32198;SDS011;19221;42.656;21.156;2022-08-19T11:17:24;11.90;;;6.63;;
32198;SDS011;19221;42.656;21.156;2022-08-19T11:19:50;19.45;;;8.43;;
32198;SDS011;19221;42.656;21.156;2022-08-19T11:22:15;18.73;;;8.02;;
32198;SDS011;19221;42.656;21.156;2022-08-19T11:24:42;14.10;;;6.40;;
32198;SDS011;19221;42.656;21.156;2022-08-19T11:27:08;17.23;;;7.13;;
32198;SDS011;19221;42.656;21.156;2022-08-19T11:29:35;17.40;;;7.30;;
32198;SDS011;19221;42.656;21.156;2022-08-19T11:32:07;15.95;;;6.93;;
32198;SDS011;19221;42.656;21.156;2022-08-19T11:34:34;21.92;;;7.65;;
32198;SDS011;19221;42.656;21.156;2022-08-19T11:37:01;21.25;;;7.35;;
32198;SDS011;19221;42.656;21.156;2022-08-19T11:39:28;14.48;;;7.53;;
32198;SDS011;19221;42.656;21.156;2022-08-19T11:41:54;18.63;;;8.15;;
32198;SDS011;19221;42.656;21.156;2022-08-19T11:44:20;20.50;;;7.50;;
32198;SDS011;19221;42.656;21.156;2022-08-19T11:46:46;21.98;;;7.45;;
32198;SDS011;19221;42.656;21.156;2022-08-19T11:49:18;25.27;;;7.50;;
32198;SDS011;19221;42.656;21.156;2022-08-19T11:51:45;16.25;;;7.50;;
32198;SDS011;19221;42.656;21.156;2022-08-19T11:54:12;19.30;;;8.85;;
32198;SDS011;19221;42.656;21.156;2022-08-19T11:56:38;23.85;;;7.93;;
32198;SDS011;19221;42.656;21.156;2022-08-19T11:59:04;15.07;;;6.30;;
32198;SDS011;19221;42.656;21.156;2022-08-19T12:01:30;26.08;;;6.43;;
32198;SDS011;19221;42.656;21.156;2022-08-19T12:03:56;16.85;;;6.40;;
32198;SDS011;19221;42.656;21.156;2022-08-19T12:06:23;18.90;;;6.53;;
32198;SDS011;19221;42.656;21.156;2022-08-19T12:08:50;22.42;;;7.53;;
32198;SDS011;19221;42.656;21.156;2022-08-19T12:11:16;23.45;;;7.53;;
32198;SDS011;19221;42.656;21.156;2022-08-19T12:13:42;21.70;;;7.47;;
32198;SDS011;19221;42.656;21.156;2022-08-19T12:16:15;18.60;;;7.50;;
32198;SDS011;19221;42.656;21.156;2022-08-19T12:18:43;23.15;;;6.82;;
32198;SDS011;19221;42.656;21.156;2022-08-19T12:21:15;17.27;;;7.20;;
32198;SDS011;19221;42.656;21.156;2022-08-19T12:23:41;18.67;;;7.22;;
32198;SDS011;19221;42.656;21.156;2022-08-19T12:26:08;25.10;;;7.53;;
32198;SDS011;19221;42.656;21.156;2022-08-19T12:28:34;19.45;;;7.18;;
32198;SDS011;19221;42.656;21.156;2022-08-19T12:31:00;17.27;;;6.75;;
32198;SDS011;19221;42.656;21.156;2022-08-19T12:33:26;22.92;;;7.05;;
32198;SDS011;19221;42.656;21.156;2022-08-19T12:35:53;23.60;;;7.22;;
32198;SDS011;19221;42.656;21.156;2022-08-19T12:38:19;18.23;;;6.80;;
32198;SDS011;19221;42.656;21.156;2022-08-19T12:40:45;19.30;;;7.32;;
32198;SDS011;19221;42.656;21.156;2022-08-19T12:43:12;19.48;;;7.30;;
32198;SDS011;19221;42.656;21.156;2022-08-19T12:45:39;17.58;;;6.38;;
32198;SDS011;19221;42.656;21.156;2022-08-19T12:48:05;18.25;;;7.40;;
32198;SDS011;19221;42.656;21.156;2022-08-19T12:50:31;21.92;;;7.65;;
32198;SDS011;19221;42.656;21.156;2022-08-19T12:52:57;19.08;;;8.13;;
32198;SDS011;19221;42.656;21.156;2022-08-19T12:55:23;23.30;;;8.07;;
32198;SDS011;19221;42.656;21.156;2022-08-19T12:57:50;16.75;;;7.38;;
32198;SDS011;19221;42.656;21.156;2022-08-19T13:00:17;15.30;;;7.22;;
32198;SDS011;19221;42.656;21.156;2022-08-19T13:02:44;29.95;;;7.45;;
32198;SDS011;19221;42.656;21.156;2022-08-19T13:05:12;22.38;;;7.53;;
32198;SDS011;19221;42.656;21.156;2022-08-19T13:07:38;19.73;;;7.20;;
32198;SDS011;19221;42.656;21.156;2022-08-19T13:10:06;21.58;;;6.95;;
32198;SDS011;19221;42.656;21.156;2022-08-19T13:12:32;20.17;;;7.20;;
32198;SDS011;19221;42.656;21.156;2022-08-19T13:14:58;17.63;;;7.07;;
32198;SDS011;19221;42.656;21.156;2022-08-19T13:17:23;23.38;;;8.55;;
32198;SDS011;19221;42.656;21.156;2022-08-19T13:19:49;23.05;;;7.05;;
32198;SDS011;19221;42.656;21.156;2022-08-19T13:22:16;19.90;;;7.28;;
32198;SDS011;19221;42.656;21.156;2022-08-19T13:24:41;36.20;;;7.90;;
32198;SDS011;19221;42.656;21.156;2022-08-19T13:27:08;21.35;;;6.72;;
32198;SDS011;19221;42.656;21.156;2022-08-19T13:29:34;21.75;;;7.05;;
32198;SDS011;19221;42.656;21.156;2022-08-19T13:32:18;26.40;;;7.40;;
32198;SDS011;19221;42.656;21.156;2022-08-19T13:35:03;23.55;;;7.20;;
32198;SDS011;19221;42.656;21.156;2022-08-19T13:37:29;20.05;;;7.03;;
32198;SDS011;19221;42.656;21.156;2022-08-19T13:40:07;21.90;;;7.00;;
32198;SDS011;19221;42.656;21.156;2022-08-19T13:42:36;29.08;;;7.00;;
32198;SDS011;19221;42.656;21.156;2022-08-19T13:45:02;29.48;;;7.47;;
32198;SDS011;19221;42.656;21.156;2022-08-19T13:47:28;20.30;;;7.78;;
32198;SDS011;19221;42.656;21.156;2022-08-19T13:49:54;33.03;;;7.85;;
32198;SDS011;19221;42.656;21.156;2022-08-19T13:52:19;22.33;;;7.18;;
32198;SDS011;19221;42.656;21.156;2022-08-19T13:54:45;27.58;;;6.45;;
32198;SDS011;19221;42.656;21.156;2022-08-19T13:57:11;28.83;;;6.80;;
32198;SDS011;19221;42.656;21.156;2022-08-19T13:59:38;28.33;;;6.90;;
32198;SDS011;19221;42.656;21.156;2022-08-19T14:02:03;29.20;;;7.47;;
32198;SDS011;19221;42.656;21.156;2022-08-19T14:04:30;23.48;;;7.05;;
32198;SDS011;19221;42.656;21.156;2022-08-19T14:06:56;29.02;;;8.10;;
32198;SDS011;19221;42.656;21.156;2022-08-19T14:09:22;28.45;;;6.97;;
32198;SDS011;19221;42.656;21.156;2022-08-19T14:11:47;29.50;;;7.70;;
32198;SDS011;19221;42.656;21.156;2022-08-19T14:14:15;24.27;;;6.88;;
32198;SDS011;19221;42.656;21.156;2022-08-19T14:16:41;25.00;;;6.90;;
32198;SDS011;19221;42.656;21.156;2022-08-19T14:19:08;19.98;;;7.65;;
32198;SDS011;19221;42.656;21.156;2022-08-19T14:21:33;24.17;;;6.97;;
32198;SDS011;19221;42.656;21.156;2022-08-19T14:24:01;24.15;;;6.93;;
32198;SDS011;19221;42.656;21.156;2022-08-19T14:26:26;23.60;;;7.38;;